Terminal Aerodrome Forecast
Issued by NWS

Home | Current Version | Previous Version | Text Only | Print | Product List | Glossary Off
Versions: 1 2 3 4 5 6 7 8 9 10 11 12 13 14 15

022
FTUS43 KABR 242327
TAFATY
TAF
KATY 242327Z 2500/2524 19009KT P6SM BKN080
     FM250100 20010KT P6SM SCT200
     FM250500 23014KT P6SM SKC
     FM251400 28015KT P6SM OVC015
     FM251800 31022G32KT P6SM OVC025=

USA.gov is the U.S. government's official web portal to all federal, state and local government web resources and services.